Terminal Aerodrome Forecast
Issued by NWS

Home | Current Version | Previous Version | Text Only | Print | Product List | Glossary On
Versions: 1 2 3 4 5 6 7 8 9 10 11 12 13
000
FTUS43 KEAX 251120
TAFSTJ
TAF
KSTJ 251120Z 2512/2612 28005KT P6SM -SHRA VCTS SCT015CB BKN050
      TEMPO 2512/2515 6SM -TSRA BKN015CB
     FM251500 31010G20KT P6SM SCT040 OVC150
     FM252300 31008KT P6SM SCT150=

USA.gov is the U.S. government's official web portal to all federal, state and local government web resources and services.